createdAt,value
2018-05-03T00:00:04.031Z,11.30
2018-05-03T00:01:04.120Z,11.40
2018-05-03T00:02:04.086Z,11.70
2018-05-03T00:03:03.905Z,12.20
2018-05-03T00:04:03.931Z,12.50
2018-05-03T00:05:03.886Z,12.90
2018-05-03T00:06:03.814Z,12.90
2018-05-03T00:07:03.787Z,13.70
2018-05-03T00:08:03.886Z,12.70
2018-05-03T00:09:03.684Z,13.40
2018-05-03T00:10:03.664Z,11.90
2018-05-03T00:11:03.646Z,12.60
2018-05-03T00:12:03.581Z,10.70
2018-05-03T00:13:03.619Z,11.90
2018-05-03T00:14:03.504Z,12.10
2018-05-03T00:15:03.508Z,13.00
2018-05-03T00:16:03.393Z,12.30
2018-05-03T00:17:03.435Z,11.90
2018-05-03T00:18:03.328Z,12.00
2018-05-03T00:19:03.340Z,11.50
2018-05-03T00:20:03.253Z,11.20
2018-05-03T00:21:03.250Z,11.30
2018-05-03T00:22:03.188Z,11.90
2018-05-03T00:23:03.145Z,12.00
2018-05-03T00:24:03.157Z,12.10
2018-05-03T00:25:03.072Z,13.10
2018-05-03T00:26:02.985Z,11.80
2018-05-03T00:27:02.985Z,11.50
2018-05-03T00:28:03.025Z,12.10
2018-05-03T00:29:02.906Z,10.90
2018-05-03T00:30:02.954Z,12.30
2018-05-03T00:31:02.875Z,11.30
2018-05-03T00:32:02.855Z,11.80
2018-05-03T00:33:02.835Z,11.60
2018-05-03T00:34:02.719Z,11.50
2018-05-03T00:35:02.669Z,10.90
2018-05-03T00:36:02.677Z,10.80
2018-05-03T00:37:02.591Z,10.90
2018-05-03T00:38:02.554Z,10.60
2018-05-03T00:39:02.516Z,10.10
2018-05-03T00:40:02.474Z,10.20
2018-05-03T00:41:02.408Z,10.90
2018-05-03T00:42:02.428Z,10.70
2018-05-03T00:43:02.372Z,10.60
2018-05-03T00:44:02.319Z,9.70
2018-05-03T00:45:02.289Z,10.50
2018-05-03T00:46:02.241Z,11.10
2018-05-03T00:47:02.188Z,11.20
2018-05-03T00:48:02.179Z,10.70
2018-05-03T00:49:02.189Z,11.20
2018-05-03T00:50:02.108Z,11.70
2018-05-03T00:51:02.025Z,11.10
2018-05-03T00:52:01.983Z,12.00
2018-05-03T00:53:01.960Z,12.50
2018-05-03T00:54:01.910Z,12.60
2018-05-03T00:55:01.855Z,12.90
2018-05-03T00:56:01.874Z,13.10
2018-05-03T00:57:01.918Z,13.60
2018-05-03T00:58:01.764Z,14.40
2018-05-03T00:59:01.801Z,13.50
2018-05-03T01:00:01.713Z,12.90
2018-05-03T01:01:01.663Z,13.40
2018-05-03T01:03:37.061Z,12.80
2018-05-03T01:04:35.859Z,12.30
2018-05-03T01:06:30.570Z,11.70
2018-05-03T01:07:29.326Z,11.90
2018-05-03T01:09:24.339Z,11.10
2018-05-03T01:10:24.382Z,10.60
2018-05-03T01:13:50.391Z,11.70
2018-05-03T01:14:48.421Z,11.10
2018-05-03T01:16:48.115Z,10.30
2018-05-03T01:17:45.928Z,9.10
2018-05-03T01:19:41.273Z,10.10
2018-05-03T01:20:41.295Z,10.80
2018-05-03T01:22:55.692Z,10.30
2018-05-03T01:23:34.345Z,10.40
2018-05-03T01:25:28.839Z,10.30
2018-05-03T01:26:27.507Z,10.30
2018-05-03T01:28:22.322Z,10.80
2018-05-03T01:29:20.966Z,12.80
2018-05-03T01:31:27.790Z,12.30
2018-05-03T01:32:27.699Z,12.10
2018-05-03T01:34:20.595Z,12.10
2018-05-03T01:35:20.632Z,13.00
2018-05-03T01:37:13.675Z,12.60
2018-05-03T01:38:13.215Z,11.50
2018-05-03T01:40:06.686Z,12.40
2018-05-03T01:41:07.115Z,12.20
2018-05-03T01:43:00.074Z,12.60
2018-05-03T01:43:59.991Z,13.60
2018-05-03T01:45:52.904Z,13.50
2018-05-03T01:46:51.683Z,11.90
2018-05-03T01:48:46.502Z,12.70
2018-05-03T01:49:46.063Z,13.50
2018-05-03T01:51:39.387Z,13.30
2018-05-03T01:52:39.278Z,13.00
2018-05-03T01:54:32.235Z,13.30
2018-05-03T01:55:32.449Z,12.90
2018-05-03T01:57:25.365Z,13.30
2018-05-03T01:58:25.288Z,13.10
2018-05-03T02:00:18.306Z,14.60
2018-05-03T02:01:16.487Z,14.50
2018-05-03T02:03:11.337Z,14.10
2018-05-03T02:04:10.819Z,14.70
2018-05-03T02:06:04.200Z,14.30
2018-05-03T02:07:03.731Z,14.10
2018-05-03T02:08:57.138Z,15.00
2018-05-03T02:09:57.083Z,15.60
2018-05-03T02:11:50.127Z,16.00
2018-05-03T02:12:48.256Z,14.70
2018-05-03T02:14:43.099Z,15.40
2018-05-03T02:15:42.873Z,15.10
2018-05-03T02:17:36.813Z,17.10
2018-05-03T02:18:35.309Z,17.30
2018-05-03T02:20:30.531Z,17.50
2018-05-03T02:21:30.434Z,18.20
2018-05-03T02:23:23.432Z,17.00
2018-05-03T02:24:23.368Z,15.70
2018-05-03T02:26:16.778Z,15.90
2018-05-03T02:27:16.220Z,16.70
2018-05-03T02:29:09.382Z,17.20
2018-05-03T02:30:07.478Z,17.50
2018-05-03T02:32:02.741Z,18.20
2018-05-03T02:33:01.592Z,19.40
2018-05-03T02:34:55.864Z,18.80
2018-05-03T02:35:54.870Z,18.50
2018-05-03T02:37:49.109Z,20.80
2018-05-03T02:38:47.754Z,19.50
2018-05-03T02:39:48.734Z,19.20
2018-05-03T02:40:48.861Z,18.10
2018-05-03T02:41:48.644Z,19.50
2018-05-03T02:42:48.554Z,17.60
2018-05-03T02:43:48.726Z,16.80
2018-05-03T02:44:48.548Z,18.50
2018-05-03T02:45:48.531Z,17.50
2018-05-03T02:46:46.490Z,16.60
2018-05-03T02:47:46.145Z,19.00
2018-05-03T02:48:46.194Z,20.40
2018-05-03T02:49:46.160Z,20.20
2018-05-03T02:50:46.071Z,19.10
2018-05-03T02:51:46.019Z,19.00
2018-05-03T02:52:45.946Z,19.80
2018-05-03T02:53:45.913Z,20.00
2018-05-03T02:54:45.874Z,19.10
2018-05-03T02:55:45.841Z,16.00
2018-05-03T02:56:45.829Z,17.40
2018-05-03T02:57:45.801Z,16.60
2018-05-03T02:58:45.741Z,16.70
2018-05-03T02:59:45.717Z,17.50
2018-05-03T03:00:45.670Z,18.20
2018-05-03T03:01:45.738Z,17.80
2018-05-03T03:02:45.568Z,16.80
2018-05-03T03:03:45.598Z,17.30
2018-05-03T03:04:45.522Z,18.00
2018-05-03T03:05:45.502Z,17.90
2018-05-03T03:06:45.426Z,18.30
2018-05-03T03:07:45.428Z,19.70
2018-05-03T03:08:45.333Z,19.80
2018-05-03T03:09:45.379Z,20.80
2018-05-03T03:10:45.246Z,19.80
2018-05-03T03:11:45.243Z,20.60
2018-05-03T03:12:45.246Z,18.60
2018-05-03T03:13:45.173Z,17.70
2018-05-03T03:14:45.097Z,18.30
2018-05-03T03:15:45.057Z,17.80
2018-05-03T03:16:45.024Z,17.50
2018-05-03T03:17:44.996Z,18.90
2018-05-03T03:18:44.951Z,16.80
2018-05-03T03:19:44.956Z,17.10
2018-05-03T03:20:44.864Z,17.50
2018-05-03T03:21:44.816Z,17.90
2018-05-03T03:22:44.791Z,19.70
2018-05-03T03:23:44.809Z,21.20
2018-05-03T03:24:44.712Z,21.10
2018-05-03T03:25:44.677Z,20.60
2018-05-03T03:26:44.631Z,20.40
2018-05-03T03:27:44.603Z,20.70
2018-05-03T03:28:44.565Z,19.30
2018-05-03T03:29:44.530Z,19.70
2018-05-03T03:30:44.467Z,21.10
2018-05-03T03:31:44.442Z,23.20
2018-05-03T03:32:44.439Z,23.80
2018-05-03T03:33:44.353Z,25.20
2018-05-03T03:34:44.306Z,25.10
2018-05-03T03:35:44.260Z,22.40
2018-05-03T03:36:44.240Z,21.30
2018-05-03T03:37:44.193Z,22.10
2018-05-03T03:38:44.208Z,22.10
2018-05-03T03:39:44.149Z,22.40
2018-05-03T03:40:44.100Z,22.90
2018-05-03T03:41:44.019Z,21.10
2018-05-03T03:42:44.016Z,22.50
2018-05-03T03:43:43.964Z,21.00
2018-05-03T03:44:43.947Z,21.80
2018-05-03T03:45:45.472Z,21.60
2018-05-03T03:47:40.981Z,21.80
2018-05-03T03:48:39.280Z,21.50
2018-05-03T03:50:33.627Z,20.80
2018-05-03T03:51:33.538Z,21.30
2018-05-03T03:53:26.540Z,22.00
2018-05-03T03:54:26.601Z,21.70
2018-05-03T03:56:19.407Z,22.20
2018-05-03T03:57:19.419Z,23.80
2018-05-03T03:59:12.567Z,24.50
2018-05-03T04:00:11.170Z,24.10
2018-05-03T04:02:05.355Z,22.70
2018-05-03T04:03:05.331Z,22.30
2018-05-03T04:05:00.210Z,22.70
2018-05-03T04:05:59.810Z,22.20
2018-05-03T04:06:59.812Z,23.30
2018-05-03T04:07:59.729Z,26.50
2018-05-03T04:08:58.190Z,25.50
2018-05-03T04:09:59.751Z,23.60
2018-05-03T04:10:59.753Z,23.20
2018-05-03T04:11:59.636Z,23.60
2018-05-03T04:12:59.638Z,25.90
2018-05-03T04:14:00.621Z,26.70
2018-05-03T04:15:00.802Z,26.50
2018-05-03T04:16:53.899Z,26.90
2018-05-03T04:17:53.901Z,25.80
2018-05-03T04:19:46.882Z,26.50
2018-05-03T04:20:46.947Z,28.80
2018-05-03T04:22:39.916Z,30.10
2018-05-03T04:23:38.051Z,29.10
2018-05-03T04:25:32.787Z,30.50
2018-05-03T04:26:32.156Z,28.50
2018-05-03T04:28:25.904Z,28.40
2018-05-03T04:29:23.976Z,28.80
2018-05-03T04:31:18.747Z,28.50
2018-05-03T04:32:18.765Z,27.40
2018-05-03T04:34:16.592Z,28.60
2018-05-03T04:35:15.874Z,28.50
2018-05-03T04:37:09.709Z,28.00
2018-05-03T04:38:09.367Z,26.60
2018-05-03T04:40:02.758Z,27.10
2018-05-03T04:41:00.561Z,26.80
2018-05-03T04:42:55.261Z,26.40
2018-05-03T04:43:55.200Z,27.60
2018-05-03T04:45:48.806Z,28.60
2018-05-03T04:46:48.761Z,27.80
2018-05-03T04:48:41.752Z,28.50
2018-05-03T04:49:41.595Z,30.80
2018-05-03T04:51:34.625Z,26.30
2018-05-03T04:52:34.620Z,27.40
2018-05-03T04:54:27.670Z,27.30
2018-05-03T04:55:27.639Z,27.40
2018-05-03T04:57:20.968Z,26.50
2018-05-03T04:58:19.292Z,25.40
2018-05-03T05:00:13.196Z,27.40
2018-05-03T05:01:11.786Z,25.70
2018-05-03T05:03:06.512Z,25.00
2018-05-03T05:04:04.751Z,24.00
2018-05-03T05:05:59.463Z,22.90
2018-05-03T05:06:59.437Z,23.30
2018-05-03T05:08:52.370Z,23.50
2018-05-03T05:09:50.911Z,23.60
2018-05-03T05:11:45.390Z,22.00
2018-05-03T05:12:43.377Z,21.30
2018-05-03T05:14:38.372Z,20.50
2018-05-03T05:15:38.218Z,21.70
2018-05-03T05:17:34.178Z,20.30
2018-05-03T05:20:27.795Z,21.30
2018-05-03T05:21:27.619Z,19.10
2018-05-03T05:23:20.252Z,21.30
2018-05-03T05:24:19.445Z,20.90
2018-05-03T05:26:13.705Z,20.20
2018-05-03T05:27:12.297Z,19.50
2018-05-03T05:29:06.560Z,19.70
2018-05-03T05:30:06.542Z,19.20
2018-05-03T05:32:01.164Z,20.80
2018-05-03T05:32:59.078Z,21.70
2018-05-03T05:34:54.119Z,20.80
2018-05-03T05:35:53.947Z,20.60
2018-05-03T05:37:46.878Z,19.60
2018-05-03T05:38:45.026Z,18.90
2018-05-03T05:40:39.507Z,18.50
2018-05-03T05:41:39.779Z,18.00
2018-05-03T05:43:32.886Z,18.40
2018-05-03T05:44:31.201Z,17.70
2018-05-03T05:46:25.838Z,17.70
2018-05-03T05:47:24.120Z,19.10
2018-05-03T05:49:19.866Z,16.70
2018-05-03T05:50:20.293Z,16.60
2018-05-03T05:52:13.821Z,17.10
2018-05-03T05:53:11.858Z,16.60
2018-05-03T05:55:07.358Z,15.70
2018-05-03T05:56:07.071Z,15.60
2018-05-03T05:58:00.297Z,15.80
2018-05-03T05:58:58.357Z,15.40
2018-05-03T06:00:52.570Z,14.70
2018-05-03T06:01:51.297Z,14.30
2018-05-03T06:03:46.090Z,15.60
2018-05-03T06:04:46.048Z,15.00
2018-05-03T06:06:39.146Z,15.90
2018-05-03T06:07:37.238Z,15.70
2018-05-03T06:09:32.129Z,14.80
2018-05-03T06:10:31.937Z,16.20
2018-05-03T06:11:31.780Z,15.90
2018-05-03T06:12:31.988Z,16.00
2018-05-03T06:13:31.895Z,15.70
2018-05-03T06:14:30.177Z,15.30
2018-05-03T06:15:31.906Z,16.50
2018-05-03T06:16:32.108Z,15.70
2018-05-03T06:17:31.985Z,15.40
2018-05-03T06:18:31.902Z,16.10
2018-05-03T06:19:30.163Z,16.00
2018-05-03T06:20:29.799Z,16.30
2018-05-03T06:21:31.046Z,16.00
2018-05-03T06:22:29.868Z,16.10
2018-05-03T06:23:31.701Z,16.20
2018-05-03T06:24:31.522Z,16.00
2018-05-03T06:25:31.566Z,15.90
2018-05-03T06:26:31.554Z,16.70
2018-05-03T06:27:29.487Z,16.70
2018-05-03T06:28:29.339Z,16.90
2018-05-03T06:29:29.299Z,15.70
2018-05-03T06:30:29.216Z,17.10
2018-05-03T06:31:29.156Z,17.10
2018-05-03T06:32:29.135Z,16.70
2018-05-03T06:33:29.088Z,16.50
2018-05-03T06:34:29.160Z,17.00
2018-05-03T06:35:29.016Z,17.40
2018-05-03T06:36:29.021Z,17.30
2018-05-03T06:37:28.962Z,16.70
2018-05-03T06:38:29.778Z,16.50
2018-05-03T06:39:28.888Z,16.80
2018-05-03T06:40:28.857Z,17.40
2018-05-03T06:41:28.901Z,17.60
2018-05-03T06:42:28.793Z,17.50
2018-05-03T06:43:28.856Z,17.60
2018-05-03T06:44:28.739Z,17.10
2018-05-03T06:45:28.710Z,18.30
2018-05-03T06:46:28.640Z,16.10
2018-05-03T06:47:28.648Z,16.70
2018-05-03T06:48:28.575Z,16.60
2018-05-03T06:49:28.631Z,16.50
2018-05-03T06:50:28.513Z,15.70
2018-05-03T06:51:28.531Z,15.80
2018-05-03T06:52:28.473Z,15.50
2018-05-03T06:53:28.411Z,16.00
2018-05-03T06:54:28.391Z,15.30
2018-05-03T06:55:28.499Z,14.50
2018-05-03T06:56:28.340Z,14.40
2018-05-03T06:57:28.366Z,15.00
2018-05-03T06:58:28.309Z,13.20
2018-05-03T06:59:28.257Z,13.00
2018-05-03T07:00:28.238Z,13.30
2018-05-03T07:01:28.194Z,12.70
2018-05-03T07:02:28.145Z,12.80
2018-05-03T07:03:28.147Z,13.00
2018-05-03T07:04:28.179Z,12.40
2018-05-03T07:05:28.062Z,12.40
2018-05-03T07:06:28.038Z,12.80
2018-05-03T07:07:27.988Z,11.70
2018-05-03T07:08:28.005Z,11.60
2018-05-03T07:09:27.950Z,12.00
2018-05-03T07:10:27.906Z,11.00
2018-05-03T07:11:27.945Z,11.10
2018-05-03T07:12:27.879Z,10.60
2018-05-03T07:13:27.834Z,10.10
2018-05-03T07:14:27.798Z,9.70
2018-05-03T07:15:27.888Z,9.50
2018-05-03T07:16:27.727Z,9.80
2018-05-03T07:17:27.736Z,9.40
2018-05-03T07:18:27.701Z,10.00
2018-05-03T07:19:27.678Z,9.50
2018-05-03T07:20:27.618Z,9.70
2018-05-03T07:21:27.672Z,9.50
2018-05-03T07:22:27.610Z,9.20
2018-05-03T07:23:27.548Z,9.90
2018-05-03T07:24:27.535Z,9.60
2018-05-03T07:25:27.633Z,9.90
2018-05-03T07:26:27.492Z,9.40
2018-05-03T07:27:27.444Z,8.90
2018-05-03T07:28:27.441Z,9.10
2018-05-03T07:29:27.468Z,8.90
2018-05-03T07:30:27.408Z,8.70
2018-05-03T07:31:27.394Z,8.60
2018-05-03T07:32:27.319Z,10.00
2018-05-03T07:33:27.346Z,7.90
2018-05-03T07:34:27.278Z,8.70
2018-05-03T07:35:27.243Z,8.40
2018-05-03T07:36:27.250Z,8.70
2018-05-03T07:37:27.206Z,8.40
2018-05-03T07:38:27.166Z,8.20
2018-05-03T07:39:27.169Z,7.70
2018-05-03T07:40:27.195Z,8.60
2018-05-03T07:41:27.131Z,8.10
2018-05-03T07:42:27.103Z,8.30
2018-05-03T07:43:27.088Z,7.10
2018-05-03T07:44:27.030Z,6.80
2018-05-03T07:45:26.998Z,8.00
2018-05-03T07:46:26.975Z,7.30
2018-05-03T07:47:26.966Z,7.10
2018-05-03T07:48:26.948Z,8.10
2018-05-03T07:49:26.943Z,7.50
2018-05-03T07:50:26.900Z,7.00
2018-05-03T07:51:26.887Z,7.70
2018-05-03T07:52:26.843Z,7.60
2018-05-03T07:53:26.826Z,8.10
2018-05-03T07:54:26.807Z,8.00
2018-05-03T07:55:26.777Z,8.30
2018-05-03T07:56:26.744Z,7.60
2018-05-03T07:57:26.773Z,8.80
2018-05-03T07:58:26.716Z,7.30
2018-05-03T07:59:26.699Z,8.30
2018-05-03T08:00:26.667Z,7.40
2018-05-03T08:01:26.631Z,7.00
2018-05-03T08:02:26.607Z,7.70
2018-05-03T08:03:26.560Z,7.60
2018-05-03T08:04:27.289Z,8.70
2018-05-03T08:05:26.526Z,7.40
2018-05-03T08:06:26.498Z,7.40
2018-05-03T08:07:26.481Z,7.30
2018-05-03T08:08:26.440Z,8.00
2018-05-03T08:09:26.422Z,7.60
2018-05-03T08:10:26.379Z,7.60
2018-05-03T08:11:26.386Z,7.40
2018-05-03T08:12:26.383Z,7.80
2018-05-03T08:13:26.337Z,7.20
2018-05-03T08:14:26.282Z,7.50
2018-05-03T08:15:26.282Z,7.00
2018-05-03T08:16:26.280Z,7.40
2018-05-03T08:17:26.208Z,7.30
2018-05-03T08:18:26.255Z,8.20
2018-05-03T08:19:26.152Z,7.80
2018-05-03T08:20:26.106Z,7.80
2018-05-03T08:21:26.133Z,7.50
2018-05-03T08:22:26.118Z,8.10
2018-05-03T08:23:26.029Z,8.70
2018-05-03T08:24:26.036Z,8.10
2018-05-03T08:25:26.022Z,7.80
2018-05-03T08:26:25.960Z,7.70
2018-05-03T08:27:25.943Z,7.70
2018-05-03T08:28:25.961Z,8.10
2018-05-03T08:29:25.867Z,8.60
2018-05-03T08:30:25.853Z,7.60
2018-05-03T08:31:26.303Z,7.20
2018-05-03T08:32:25.777Z,7.50
2018-05-03T08:33:25.746Z,8.70
2018-05-03T08:34:25.754Z,9.10
2018-05-03T08:35:26.296Z,7.80
2018-05-03T08:36:25.705Z,8.00
2018-05-03T08:37:25.648Z,8.20
2018-05-03T08:38:25.607Z,8.30
2018-05-03T08:39:25.550Z,8.50
2018-05-03T08:40:25.581Z,8.10
2018-05-03T08:41:25.540Z,7.60
2018-05-03T08:42:25.482Z,8.10
2018-05-03T08:43:25.476Z,7.90
2018-05-03T08:44:25.422Z,7.70
2018-05-03T08:45:25.390Z,8.00
2018-05-03T08:46:25.380Z,8.60
2018-05-03T08:47:25.354Z,8.90
2018-05-03T08:48:25.336Z,8.10
2018-05-03T08:49:25.338Z,8.80
2018-05-03T08:50:25.264Z,8.70
2018-05-03T08:51:25.241Z,8.40
2018-05-03T08:52:25.204Z,8.70
2018-05-03T08:53:25.166Z,8.60
2018-05-03T08:54:25.125Z,8.30
2018-05-03T08:55:25.099Z,7.80
2018-05-03T08:56:25.069Z,8.40
2018-05-03T08:57:25.054Z,7.90
2018-05-03T08:58:25.009Z,8.50
2018-05-03T08:59:24.991Z,8.20
2018-05-03T09:00:24.974Z,8.30
2018-05-03T09:01:24.923Z,8.70
2018-05-03T09:02:24.909Z,9.20
2018-05-03T09:03:24.877Z,8.30
2018-05-03T09:04:24.827Z,8.50
2018-05-03T09:05:24.815Z,8.50
2018-05-03T09:06:24.754Z,9.30
2018-05-03T09:07:24.738Z,9.50
2018-05-03T09:08:24.718Z,8.70
2018-05-03T09:09:24.689Z,9.30
2018-05-03T09:10:24.660Z,9.60
2018-05-03T09:11:24.644Z,8.50
2018-05-03T09:12:24.598Z,8.90
2018-05-03T09:13:24.554Z,8.70
2018-05-03T09:14:24.560Z,9.40
2018-05-03T09:15:24.523Z,9.10
2018-05-03T09:16:24.477Z,9.50
2018-05-03T09:17:24.453Z,9.70
2018-05-03T09:18:24.410Z,9.80
2018-05-03T09:19:24.412Z,8.90
2018-05-03T09:20:24.373Z,9.00
2018-05-03T09:21:24.336Z,9.70
2018-05-03T09:22:24.347Z,9.30
2018-05-03T09:23:25.942Z,12.30
2018-05-03T09:24:24.262Z,13.90
2018-05-03T09:25:24.250Z,9.90
2018-05-03T09:26:24.232Z,9.30
2018-05-03T09:27:24.142Z,11.00
2018-05-03T09:28:24.119Z,10.10
2018-05-03T09:29:24.118Z,9.30
2018-05-03T09:30:24.104Z,8.80
2018-05-03T09:31:24.059Z,8.30
2018-05-03T09:32:24.045Z,8.10
2018-05-03T09:33:23.981Z,8.80
2018-05-03T09:34:23.958Z,9.20
2018-05-03T09:35:23.945Z,8.90
2018-05-03T09:36:23.893Z,8.70
2018-05-03T09:37:23.869Z,9.30
2018-05-03T09:38:23.819Z,8.30
2018-05-03T09:39:23.801Z,8.60
2018-05-03T09:40:23.880Z,8.60
2018-05-03T09:41:23.743Z,9.50
2018-05-03T09:42:23.716Z,9.60
2018-05-03T09:43:23.674Z,9.10
2018-05-03T09:44:23.693Z,8.50
2018-05-03T09:45:23.665Z,8.50
2018-05-03T09:46:23.630Z,8.40
2018-05-03T09:47:23.571Z,9.00
2018-05-03T09:48:23.541Z,7.70
2018-05-03T09:49:23.503Z,8.50
2018-05-03T09:50:23.476Z,8.70
2018-05-03T09:51:23.493Z,8.40
2018-05-03T09:52:23.448Z,8.70
2018-05-03T09:53:23.456Z,8.10
2018-05-03T09:54:23.414Z,8.20
2018-05-03T09:55:23.330Z,8.20
2018-05-03T09:56:23.396Z,9.80
2018-05-03T09:57:23.279Z,8.90
2018-05-03T09:58:23.297Z,7.50
2018-05-03T09:59:23.316Z,7.70
2018-05-03T10:00:23.202Z,7.70
2018-05-03T10:01:23.169Z,7.70
2018-05-03T10:02:23.172Z,7.70
2018-05-03T10:03:23.131Z,7.40
2018-05-03T10:04:23.109Z,10.40
2018-05-03T10:05:23.075Z,7.80
2018-05-03T10:06:23.064Z,7.90
2018-05-03T10:07:23.010Z,8.00
2018-05-03T10:08:23.026Z,8.00
2018-05-03T10:09:22.983Z,9.30
2018-05-03T10:10:22.960Z,7.60
2018-05-03T10:11:22.910Z,7.40
2018-05-03T10:12:22.893Z,7.80
2018-05-03T10:13:23.012Z,8.00
2018-05-03T10:14:22.854Z,7.60
2018-05-03T10:15:22.806Z,7.40
2018-05-03T10:16:22.771Z,7.30
2018-05-03T10:17:22.796Z,8.70
2018-05-03T10:18:22.723Z,7.10
2018-05-03T10:19:22.690Z,9.00
2018-05-03T10:20:22.706Z,7.70
2018-05-03T10:21:22.782Z,8.50
2018-05-03T10:22:22.643Z,7.80
2018-05-03T10:23:22.671Z,9.00
2018-05-03T10:24:22.581Z,8.90
2018-05-03T10:25:22.565Z,9.20
2018-05-03T10:26:22.561Z,8.20
2018-05-03T10:27:22.492Z,8.90
2018-05-03T10:28:22.541Z,7.90
2018-05-03T10:29:22.450Z,8.50
2018-05-03T10:30:22.400Z,8.90
2018-05-03T10:31:22.381Z,10.50
2018-05-03T10:32:22.392Z,7.60
2018-05-03T10:33:22.395Z,8.30
2018-05-03T10:34:22.322Z,8.50
2018-05-03T10:35:22.281Z,8.20
2018-05-03T10:36:22.400Z,9.00
2018-05-03T10:37:22.260Z,8.60
2018-05-03T10:38:22.848Z,8.00
2018-05-03T10:39:22.225Z,9.50
2018-05-03T10:40:22.159Z,7.80
2018-05-03T10:41:22.128Z,7.80
2018-05-03T10:42:22.115Z,8.40
2018-05-03T10:43:22.072Z,9.00
2018-05-03T10:44:22.071Z,7.60
2018-05-03T10:45:22.066Z,9.50
2018-05-03T10:46:22.007Z,8.00
2018-05-03T10:47:22.021Z,8.00
2018-05-03T10:48:21.977Z,8.40
2018-05-03T10:49:21.970Z,9.90
2018-05-03T10:50:21.920Z,9.40
2018-05-03T10:51:21.912Z,8.60
2018-05-03T10:52:21.892Z,8.40
2018-05-03T10:53:21.815Z,8.50
2018-05-03T10:54:21.891Z,7.70
2018-05-03T10:55:21.775Z,7.80
2018-05-03T10:56:21.741Z,8.60
2018-05-03T10:57:21.762Z,9.70
2018-05-03T10:58:21.791Z,7.40
2018-05-03T10:59:21.644Z,7.40
2018-05-03T11:00:21.633Z,7.90
2018-05-03T11:01:21.628Z,8.50
2018-05-03T11:02:21.760Z,9.90
2018-05-03T11:03:21.558Z,8.20
2018-05-03T11:04:21.547Z,8.80
2018-05-03T11:05:21.542Z,8.50
2018-05-03T11:06:21.573Z,8.30
2018-05-03T11:07:21.487Z,7.80
2018-05-03T11:08:21.436Z,7.60
2018-05-03T11:09:21.472Z,8.10
2018-05-03T11:10:21.389Z,8.20
2018-05-03T11:11:21.354Z,7.70
2018-05-03T11:12:21.487Z,8.10
2018-05-03T11:13:21.328Z,9.30
2018-05-03T11:14:21.277Z,8.30
2018-05-03T11:15:21.260Z,8.70
2018-05-03T11:16:21.258Z,8.50
2018-05-03T11:17:21.208Z,8.40
2018-05-03T11:18:21.165Z,9.20
2018-05-03T11:19:21.171Z,9.20
2018-05-03T11:20:21.183Z,8.30
2018-05-03T11:21:21.142Z,7.60
2018-05-03T11:22:21.098Z,7.80
2018-05-03T11:23:21.109Z,10.50
2018-05-03T11:24:21.081Z,8.80
2018-05-03T11:25:21.004Z,9.50
2018-05-03T11:26:21.129Z,8.70
2018-05-03T11:27:20.950Z,11.10
2018-05-03T11:28:21.871Z,9.30
2018-05-03T11:29:20.977Z,9.40
2018-05-03T11:30:21.020Z,9.00
2018-05-03T11:31:20.910Z,8.30
2018-05-03T11:32:20.822Z,8.90
2018-05-03T11:33:20.833Z,9.20
2018-05-03T11:34:20.769Z,8.70
2018-05-03T11:35:20.770Z,8.10
2018-05-03T11:36:20.711Z,9.50
2018-05-03T11:37:20.741Z,7.70
2018-05-03T11:38:20.818Z,9.10
2018-05-03T11:39:20.728Z,8.80
2018-05-03T11:40:20.707Z,9.10
2018-05-03T11:41:20.611Z,8.60
2018-05-03T11:42:20.690Z,8.90
2018-05-03T11:43:20.829Z,8.80
2018-05-03T11:44:20.840Z,9.50
2018-05-03T11:45:20.585Z,8.30
2018-05-03T11:46:20.519Z,10.70
2018-05-03T11:47:20.536Z,8.50
2018-05-03T11:48:20.417Z,8.20
2018-05-03T11:49:20.501Z,8.50
2018-05-03T11:50:20.359Z,10.50
2018-05-03T11:51:20.379Z,8.80
2018-05-03T11:52:20.302Z,8.10
2018-05-03T11:53:20.302Z,8.40
2018-05-03T11:54:20.300Z,8.40
2018-05-03T11:55:20.242Z,8.40
2018-05-03T11:56:20.347Z,8.80
2018-05-03T11:57:20.203Z,7.90
2018-05-03T11:58:20.155Z,8.80
2018-05-03T12:00:16.365Z,10.30
2018-05-03T12:01:15.665Z,8.30
2018-05-03T12:03:10.722Z,9.50
2018-05-03T12:04:10.377Z,9.90
2018-05-03T12:06:05.138Z,8.80
2018-05-03T12:07:03.018Z,9.00
2018-05-03T12:08:59.055Z,8.80
2018-05-03T12:09:58.923Z,8.60
2018-05-03T12:11:56.447Z,10.70
2018-05-03T12:12:57.634Z,9.20
2018-05-03T12:13:56.171Z,9.80
2018-05-03T12:14:56.299Z,9.20
2018-05-03T12:15:54.378Z,8.90
2018-05-03T12:16:56.303Z,9.20
2018-05-03T12:17:56.292Z,9.70
2018-05-03T12:18:54.155Z,9.30
2018-05-03T12:19:56.171Z,9.70
2018-05-03T12:20:56.188Z,9.30
2018-05-03T12:21:55.828Z,10.30
2018-05-03T12:22:56.159Z,8.80
2018-05-03T12:23:56.093Z,8.80
2018-05-03T12:24:56.251Z,10.60
2018-05-03T12:25:55.343Z,8.60
2018-05-03T12:26:54.068Z,9.80
2018-05-03T12:27:54.809Z,9.00
2018-05-03T12:28:56.107Z,11.40
2018-05-03T12:29:54.147Z,9.90
2018-05-03T12:30:53.693Z,9.20
2018-05-03T12:31:53.858Z,9.00
2018-05-03T12:32:53.655Z,9.60
2018-05-03T12:33:53.694Z,10.60
2018-05-03T12:34:53.665Z,9.80
2018-05-03T12:35:53.660Z,9.10
2018-05-03T12:36:53.568Z,8.90
2018-05-03T12:37:53.507Z,8.80
2018-05-03T12:38:53.507Z,9.70
2018-05-03T12:39:53.475Z,9.40
2018-05-03T12:40:53.479Z,9.70
2018-05-03T12:41:53.471Z,9.40
2018-05-03T12:42:53.385Z,8.80
2018-05-03T12:43:53.457Z,9.60
2018-05-03T12:44:53.689Z,9.50
2018-05-03T12:45:53.322Z,9.60
2018-05-03T12:46:53.397Z,9.60
2018-05-03T12:47:53.738Z,10.10
2018-05-03T12:48:53.226Z,9.10
2018-05-03T12:49:53.313Z,9.30
2018-05-03T12:50:54.175Z,11.60
2018-05-03T12:51:54.667Z,10.10
2018-05-03T12:52:53.208Z,9.00
2018-05-03T12:53:53.094Z,8.70
2018-05-03T12:54:53.065Z,8.80
2018-05-03T12:55:53.122Z,8.50
2018-05-03T12:56:53.101Z,8.40
2018-05-03T12:57:52.998Z,7.70
2018-05-03T12:58:52.968Z,8.60
2018-05-03T12:59:52.936Z,9.50
2018-05-03T13:00:53.014Z,9.00
2018-05-03T13:01:52.983Z,7.70
2018-05-03T13:02:52.880Z,7.60
2018-05-03T13:03:52.864Z,7.50
2018-05-03T13:04:52.876Z,7.10
2018-05-03T13:05:52.825Z,7.70
2018-05-03T13:06:52.767Z,7.70
2018-05-03T13:07:52.737Z,8.60
2018-05-03T13:08:52.721Z,8.10
2018-05-03T13:09:52.829Z,8.30
2018-05-03T13:10:52.681Z,7.80
2018-05-03T13:11:52.635Z,7.90
2018-05-03T13:12:52.642Z,7.30
2018-05-03T13:13:52.585Z,7.50
2018-05-03T13:14:52.587Z,8.10
2018-05-03T13:15:52.554Z,7.80
2018-05-03T13:16:52.692Z,9.10
2018-05-03T13:17:52.894Z,8.00
2018-05-03T13:18:52.534Z,7.60
2018-05-03T13:19:52.546Z,8.50
2018-05-03T13:20:52.459Z,7.60
2018-05-03T13:21:52.404Z,7.80
2018-05-03T13:22:52.377Z,7.70
2018-05-03T13:23:52.555Z,8.30
2018-05-03T13:24:52.454Z,9.30
2018-05-03T13:25:52.295Z,8.00
2018-05-03T13:26:52.294Z,8.20
2018-05-03T13:27:52.299Z,8.40
2018-05-03T13:28:52.216Z,8.10
2018-05-03T13:29:52.222Z,7.40
2018-05-03T13:30:52.163Z,7.90
2018-05-03T13:31:52.142Z,8.20
2018-05-03T13:32:52.183Z,8.80
2018-05-03T13:33:52.102Z,9.00
2018-05-03T13:34:52.062Z,8.50
2018-05-03T13:35:52.083Z,8.30
2018-05-03T13:36:52.103Z,7.60
2018-05-03T13:37:51.989Z,7.90
2018-05-03T13:38:51.980Z,8.10
2018-05-03T13:39:51.931Z,8.20
2018-05-03T13:40:51.931Z,7.70
2018-05-03T13:41:51.919Z,8.10
2018-05-03T13:42:51.889Z,8.80
2018-05-03T13:43:51.859Z,7.60
2018-05-03T13:44:51.813Z,7.60
2018-05-03T13:45:51.792Z,7.70
2018-05-03T13:46:51.932Z,9.10
2018-05-03T13:47:51.740Z,7.20
2018-05-03T13:48:51.703Z,7.40
2018-05-03T13:49:51.660Z,7.60
2018-05-03T13:50:51.639Z,7.80
2018-05-03T13:51:51.624Z,8.00
2018-05-03T13:52:51.587Z,8.30
2018-05-03T13:53:51.567Z,7.50
2018-05-03T13:54:51.582Z,8.00
2018-05-03T13:55:51.516Z,7.90
2018-05-03T13:56:51.566Z,8.30
2018-05-03T13:57:51.496Z,8.50
2018-05-03T13:58:51.487Z,7.40
2018-05-03T13:59:51.411Z,7.70
2018-05-03T14:00:51.512Z,8.00
2018-05-03T14:01:51.408Z,7.90
2018-05-03T14:02:51.345Z,8.00
2018-05-03T14:03:51.371Z,7.70
2018-05-03T14:04:51.322Z,7.40
2018-05-03T14:05:51.305Z,7.10
2018-05-03T14:06:51.315Z,8.40
2018-05-03T14:07:51.297Z,7.70
2018-05-03T14:08:51.167Z,8.30
2018-05-03T14:09:51.163Z,7.90
2018-05-03T14:10:51.171Z,7.70
2018-05-03T14:11:51.207Z,8.70
2018-05-03T14:12:51.083Z,10.10
2018-05-03T14:13:51.093Z,9.00
2018-05-03T14:14:51.202Z,8.80
2018-05-03T14:15:51.010Z,8.80
2018-05-03T14:16:51.056Z,8.60
2018-05-03T14:17:50.960Z,7.70
2018-05-03T14:18:50.952Z,7.40
2018-05-03T14:19:50.988Z,8.40
2018-05-03T14:20:50.930Z,9.60
2018-05-03T14:21:50.884Z,8.80
2018-05-03T14:22:50.855Z,7.80
2018-05-03T14:23:50.916Z,8.20